Time;durP1;ratioP1;P1;durP2;ratioP2;P2;SDS_P1;SDS_P2;PMS_P1;PMS_P2;Temp;Humidity;BMP_temperature;BMP_pressure;BME280_temperature;BME280_humidity;BME280_pressure;Samples;Min_cycle;Max_cycle;Signal;HPM_P1;HPM_P2
2021/01/25 00:00:21;;;;;;;20.98;11.25;;;1.30;99.90;;;;;;5021833;28;20085;-80
2021/01/25 00:02:47;;;;;;;19.05;10.40;;;1.30;99.90;;;;;;5022757;28;20053;-82
2021/01/25 00:05:15;;;;;;;16.77;10.23;;;1.30;99.90;;;;;;5023020;28;20130;-80
2021/01/25 00:07:41;;;;;;;17.42;10.93;;;1.20;99.90;;;;;;5021851;28;20529;-82
2021/01/25 00:10:08;;;;;;;16.90;10.68;;;1.30;99.90;;;;;;5023447;28;20050;-82
2021/01/25 00:12:35;;;;;;;16.60;9.63;;;1.30;99.90;;;;;;5023147;28;20076;-82
2021/01/25 00:15:02;;;;;;;15.02;10.80;;;1.30;99.90;;;;;;5022833;28;20073;-81
2021/01/25 00:17:28;;;;;;;17.60;10.95;;;1.20;99.90;;;;;;5022280;28;20085;-82
2021/01/25 00:19:55;;;;;;;14.48;9.68;;;1.20;99.90;;;;;;5023811;28;20082;-82
2021/01/25 00:22:22;;;;;;;15.57;10.52;;;1.20;99.90;;;;;;5024512;28;20065;-82
2021/01/25 00:24:49;;;;;;;18.27;10.45;;;1.20;99.90;;;;;;5024519;28;20204;-83
2021/01/25 00:27:15;;;;;;;15.40;9.65;;;1.20;99.90;;;;;;5023844;28;20080;-83
2021/01/25 00:29:42;;;;;;;18.08;10.77;;;1.30;99.90;;;;;;5024571;28;20042;-83
2021/01/25 00:32:08;;;;;;;15.13;9.95;;;1.20;99.90;;;;;;5024212;28;20100;-82
2021/01/25 00:34:38;;;;;;;14.77;10.32;;;1.20;99.90;;;;;;5024655;28;20105;-83
2021/01/25 00:37:04;;;;;;;17.33;9.98;;;1.20;99.90;;;;;;5025020;28;20088;-83
2021/01/25 00:39:31;;;;;;;14.18;9.98;;;1.20;99.90;;;;;;5023547;28;20081;-80
2021/01/25 00:41:58;;;;;;;17.65;10.05;;;1.20;99.90;;;;;;5020719;28;20057;-81
2021/01/25 00:44:24;;;;;;;15.48;10.02;;;1.20;99.90;;;;;;5022458;28;20100;-83
2021/01/25 00:46:51;;;;;;;16.48;10.32;;;1.20;99.90;;;;;;5023425;28;20064;-82
2021/01/25 00:49:17;;;;;;;16.48;10.60;;;1.20;99.90;;;;;;5024844;28;20053;-82
2021/01/25 00:51:43;;;;;;;16.15;9.45;;;1.20;99.90;;;;;;5020296;28;20162;-81
2021/01/25 00:54:10;;;;;;;14.15;9.93;;;1.20;99.90;;;;;;5018580;28;20050;-80
2021/01/25 00:56:37;;;;;;;18.88;10.63;;;1.20;99.90;;;;;;5019047;28;20195;-79
2021/01/25 00:59:03;;;;;;;17.83;10.38;;;1.10;99.90;;;;;;5013702;28;20069;-81
2021/01/25 01:01:30;;;;;;;16.05;10.63;;;1.10;99.90;;;;;;5021565;28;20073;-82
2021/01/25 01:03:56;;;;;;;18.98;11.90;;;1.10;99.90;;;;;;5023753;28;20057;-82
2021/01/25 01:06:23;;;;;;;16.58;10.32;;;1.10;99.90;;;;;;5021356;28;20078;-81
2021/01/25 01:08:49;;;;;;;19.48;11.38;;;1.10;99.90;;;;;;5025898;28;20042;-82
2021/01/25 01:11:16;;;;;;;19.15;11.45;;;1.10;99.90;;;;;;5014491;28;20081;-80
2021/01/25 01:13:43;;;;;;;16.75;11.07;;;1.10;99.90;;;;;;5014289;28;20046;-81
2021/01/25 01:16:09;;;;;;;19.45;11.20;;;1.10;99.90;;;;;;5011851;28;20125;-81
2021/01/25 01:18:36;;;;;;;16.35;10.48;;;1.10;99.90;;;;;;5019358;28;20077;-83
2021/01/25 01:21:02;;;;;;;18.17;10.95;;;1.10;99.90;;;;;;5014702;28;20095;-81
2021/01/25 01:23:29;;;;;;;17.13;11.68;;;1.10;99.90;;;;;;5011985;28;20046;-81
2021/01/25 01:25:55;;;;;;;20.08;11.35;;;1.10;99.90;;;;;;5019829;28;20045;-79
2021/01/25 01:28:22;;;;;;;18.00;11.25;;;1.10;99.90;;;;;;5021222;28;20092;-82
2021/01/25 01:30:49;;;;;;;16.42;10.55;;;1.10;99.90;;;;;;5021151;28;20081;-82
2021/01/25 01:33:15;;;;;;;18.13;10.75;;;1.10;99.90;;;;;;5020745;28;20085;-82
2021/01/25 01:35:42;;;;;;;16.50;10.18;;;1.10;99.90;;;;;;5021654;28;20497;-82
2021/01/25 01:38:08;;;;;;;14.80;10.18;;;1.10;99.90;;;;;;5019792;28;20088;-81
2021/01/25 01:40:34;;;;;;;17.05;10.35;;;1.00;99.90;;;;;;5048383;22;20111;-81
2021/01/25 01:43:01;;;;;;;15.80;10.27;;;1.00;99.90;;;;;;5016600;28;20082;-80
2021/01/25 01:45:27;;;;;;;15.98;9.73;;;1.00;99.90;;;;;;5016826;28;20217;-79
2021/01/25 01:47:55;;;;;;;16.55;10.63;;;1.00;99.90;;;;;;5018273;28;20132;-80
2021/01/25 01:50:22;;;;;;;14.88;9.75;;;1.00;99.90;;;;;;5025690;28;20073;-81
2021/01/25 01:52:49;;;;;;;15.43;9.77;;;1.00;99.90;;;;;;5026243;28;20094;-81
2021/01/25 01:55:15;;;;;;;14.82;10.05;;;1.00;99.90;;;;;;5019292;28;20129;-79
2021/01/25 01:57:43;;;;;;;14.95;9.88;;;1.00;99.90;;;;;;5020448;28;20088;-78
2021/01/25 02:00:10;;;;;;;15.52;10.05;;;1.00;99.90;;;;;;5018773;28;20579;-77
2021/01/25 02:02:37;;;;;;;14.98;10.38;;;0.90;99.90;;;;;;5016960;28;20133;-77
2021/01/25 02:05:05;;;;;;;15.57;9.95;;;0.90;99.90;;;;;;5021532;28;20065;-78
2021/01/25 02:07:33;;;;;;;19.42;10.07;;;0.90;99.90;;;;;;5024017;28;20463;-79
2021/01/25 02:10:02;;;;;;;15.85;10.60;;;0.90;99.90;;;;;;5025402;28;20046;-79
2021/01/25 02:12:29;;;;;;;16.90;11.07;;;0.90;99.90;;;;;;5021698;28;20116;-79
2021/01/25 02:14:58;;;;;;;18.50;11.15;;;0.90;99.90;;;;;;5020241;28;20081;-80
2021/01/25 02:17:25;;;;;;;18.63;11.30;;;0.90;99.90;;;;;;5020479;28;20089;-79
2021/01/25 02:20:00;;;;;;;15.82;10.48;;;0.90;99.90;;;;;;5023634;28;20053;-78
2021/01/25 02:22:59;;;;;;;21.00;11.05;;;0.90;99.90;;;;;;5024051;28;20046;-78
2021/01/25 02:25:36;;;;;;;18.45;11.00;;;1.00;99.90;;;;;;5011240;28;20049;-79
2021/01/25 02:28:05;;;;;;;18.23;11.40;;;1.00;99.90;;;;;;5020777;28;20054;-78
2021/01/25 02:30:32;;;;;;;18.15;11.20;;;0.90;99.90;;;;;;5017924;28;20054;-79
2021/01/25 02:32:59;;;;;;;19.90;11.90;;;1.00;99.90;;;;;;5018332;28;20068;-80
2021/01/25 02:35:26;;;;;;;17.63;11.20;;;1.00;99.90;;;;;;5018916;28;20058;-80
2021/01/25 02:37:55;;;;;;;17.42;11.10;;;1.00;99.90;;;;;;5017093;28;20049;-79
2021/01/25 02:40:23;;;;;;;19.20;11.10;;;1.00;99.90;;;;;;5016784;28;20046;-79
2021/01/25 02:42:53;;;;;;;18.15;11.70;;;1.00;99.90;;;;;;5017452;28;20081;-80
2021/01/25 02:45:22;;;;;;;18.77;11.55;;;1.00;99.90;;;;;;5017097;28;20074;-80
2021/01/25 02:47:49;;;;;;;17.50;11.73;;;1.00;99.90;;;;;;5016877;28;20109;-79
2021/01/25 02:50:15;;;;;;;19.05;11.73;;;1.00;99.90;;;;;;5016432;28;20509;-78
2021/01/25 02:52:42;;;;;;;17.27;10.90;;;1.10;99.90;;;;;;5017061;28;20085;-80
2021/01/25 02:55:10;;;;;;;19.73;11.75;;;1.10;99.90;;;;;;5021644;28;20053;-80
2021/01/25 02:57:38;;;;;;;19.55;11.00;;;1.10;99.90;;;;;;5017114;28;20085;-79
2021/01/25 03:00:06;;;;;;;19.80;11.15;;;1.10;99.90;;;;;;5021360;28;20177;-78
2021/01/25 03:02:33;;;;;;;15.55;10.35;;;1.20;99.90;;;;;;5025655;28;20096;-79
2021/01/25 03:05:00;;;;;;;16.13;10.00;;;1.20;99.90;;;;;;5024444;28;20050;-79
2021/01/25 03:07:27;;;;;;;16.00;10.35;;;1.20;99.90;;;;;;5015931;28;20445;-80
2021/01/25 03:09:54;;;;;;;17.30;10.63;;;1.20;99.90;;;;;;5016787;28;20046;-78
2021/01/25 03:12:23;;;;;;;15.75;10.80;;;1.20;99.90;;;;;;5020855;28;20104;-78
2021/01/25 03:14:50;;;;;;;16.60;10.30;;;1.20;99.90;;;;;;5014896;28;20049;-80
2021/01/25 03:17:16;;;;;;;22.17;10.23;;;1.20;99.90;;;;;;5014941;28;20061;-79
2021/01/25 03:19:43;;;;;;;15.63;9.60;;;1.20;99.90;;;;;;5014999;28;20128;-78
2021/01/25 03:22:10;;;;;;;16.25;10.63;;;1.20;99.90;;;;;;5021939;28;20054;-79
2021/01/25 03:24:36;;;;;;;15.90;10.27;;;1.20;99.90;;;;;;5017600;28;20086;-79
2021/01/25 03:27:05;;;;;;;16.45;10.63;;;1.20;99.90;;;;;;5023919;28;20507;-79
2021/01/25 03:29:33;;;;;;;13.52;9.77;;;1.20;99.90;;;;;;5031183;28;20046;-79
2021/01/25 03:31:59;;;;;;;17.30;11.05;;;1.20;99.90;;;;;;5031206;28;20054;-79
2021/01/25 03:34:27;;;;;;;15.35;10.98;;;1.20;99.90;;;;;;5032497;28;20057;-79
2021/01/25 03:36:55;;;;;;;18.10;10.65;;;1.20;99.90;;;;;;5034754;28;20045;-78
2021/01/25 03:39:23;;;;;;;18.10;11.88;;;1.20;99.90;;;;;;5034507;28;20041;-78
2021/01/25 03:41:50;;;;;;;18.17;11.35;;;1.20;99.90;;;;;;5034215;28;20050;-79
2021/01/25 03:44:17;;;;;;;18.08;12.23;;;1.30;99.90;;;;;;5033386;28;20113;-78
2021/01/25 03:46:46;;;;;;;17.35;12.05;;;1.20;99.90;;;;;;5033330;28;20046;-79
2021/01/25 03:49:16;;;;;;;19.90;11.52;;;1.20;99.90;;;;;;5034182;28;20110;-79
2021/01/25 03:51:43;;;;;;;19.80;11.68;;;1.30;99.90;;;;;;5023460;28;20121;-78
2021/01/25 03:54:12;;;;;;;20.10;11.75;;;1.30;99.90;;;;;;5033776;28;20065;-80
2021/01/25 03:56:39;;;;;;;19.88;12.43;;;1.30;99.90;;;;;;5033672;28;20339;-80
2021/01/25 03:59:10;;;;;;;20.73;12.48;;;1.30;99.90;;;;;;5033980;28;20160;-80
2021/01/25 04:01:37;;;;;;;19.45;12.93;;;1.30;99.90;;;;;;5033875;28;20081;-80
2021/01/25 04:04:04;;;;;;;18.33;12.30;;;1.30;99.90;;;;;;5033853;28;20062;-80
2021/01/25 04:06:31;;;;;;;18.02;12.20;;;1.40;99.90;;;;;;5033822;28;20050;-79
2021/01/25 04:08:58;;;;;;;21.88;12.77;;;1.40;99.90;;;;;;5032760;28;20149;-79
2021/01/25 04:11:25;;;;;;;22.13;13.15;;;1.40;99.90;;;;;;5033492;28;20049;-81
2021/01/25 04:13:55;;;;;;;19.38;12.75;;;1.50;99.90;;;;;;5033583;28;20038;-79
2021/01/25 04:16:22;;;;;;;20.60;12.85;;;1.50;99.90;;;;;;5034698;28;20073;-79
2021/01/25 04:18:49;;;;;;;21.73;13.45;;;1.40;99.90;;;;;;5036228;28;20114;-81
2021/01/25 04:21:16;;;;;;;17.67;11.70;;;1.40;99.90;;;;;;5036245;28;20048;-79
2021/01/25 04:23:42;;;;;;;23.40;13.20;;;1.40;99.90;;;;;;5035185;28;20073;-80
2021/01/25 04:26:10;;;;;;;22.40;13.25;;;1.40;99.90;;;;;;5033773;28;20053;-80
2021/01/25 04:28:37;;;;;;;23.88;14.13;;;1.40;99.90;;;;;;5033208;28;20050;-80
2021/01/25 04:31:07;;;;;;;22.73;13.10;;;1.40;99.90;;;;;;5033264;28;20054;-80
2021/01/25 04:33:33;;;;;;;22.55;14.30;;;1.40;99.90;;;;;;5033295;28;20038;-80
2021/01/25 04:36:00;;;;;;;23.90;14.40;;;1.40;99.90;;;;;;5033000;28;20085;-80
2021/01/25 04:38:27;;;;;;;22.65;15.35;;;1.30;99.90;;;;;;5033222;28;20057;-79
2021/01/25 04:40:53;;;;;;;26.52;16.20;;;1.30;99.90;;;;;;5032959;28;20076;-78
2021/01/25 04:43:20;;;;;;;24.13;14.85;;;1.30;99.90;;;;;;5036558;28;20049;-78
2021/01/25 04:45:49;;;;;;;27.30;15.65;;;1.20;99.90;;;;;;5036961;28;20073;-79
2021/01/25 04:48:16;;;;;;;27.05;15.80;;;1.30;99.90;;;;;;5036816;28;20073;-78
2021/01/25 04:50:43;;;;;;;27.65;16.92;;;1.20;99.90;;;;;;5035195;28;20053;-78
2021/01/25 04:53:11;;;;;;;28.40;16.20;;;1.30;99.90;;;;;;5021890;28;20078;-78
2021/01/25 04:55:39;;;;;;;27.02;15.85;;;1.20;99.90;;;;;;5012099;28;20046;-77
2021/01/25 04:58:06;;;;;;;27.95;16.95;;;1.30;99.90;;;;;;5002646;28;20626;-79
2021/01/25 05:00:32;;;;;;;28.05;16.85;;;1.30;99.90;;;;;;5002033;28;20089;-80
2021/01/25 05:03:00;;;;;;;29.45;17.92;;;1.30;99.90;;;;;;4999140;28;20112;-79
2021/01/25 05:05:27;;;;;;;26.58;16.55;;;1.30;99.90;;;;;;5008106;28;20080;-79
2021/01/25 05:07:54;;;;;;;31.08;17.60;;;1.30;99.90;;;;;;5013292;28;20114;-79
2021/01/25 05:10:23;;;;;;;28.67;16.10;;;1.20;99.90;;;;;;5013652;28;20061;-77
2021/01/25 05:12:52;;;;;;;33.58;18.35;;;1.40;99.90;;;;;;5013581;28;20054;-78
2021/01/25 05:15:29;;;;;;;31.33;17.48;;;1.30;99.90;;;;;;5013159;28;20030;-77
2021/01/25 05:17:58;;;;;;;32.50;18.73;;;1.30;99.90;;;;;;5015467;28;20042;-79
2021/01/25 05:20:30;;;;;;;32.40;19.67;;;1.30;99.90;;;;;;5028308;28;20054;-79
2021/01/25 05:22:58;;;;;;;33.85;18.90;;;1.40;99.90;;;;;;5025211;28;20088;-80
2021/01/25 05:25:29;;;;;;;32.25;19.25;;;1.30;99.90;;;;;;5026999;28;20065;-80
2021/01/25 05:27:58;;;;;;;37.50;19.00;;;1.40;99.90;;;;;;5026746;28;20054;-80
2021/01/25 05:30:25;;;;;;;37.95;20.33;;;1.40;99.90;;;;;;5029973;28;20442;-80
2021/01/25 05:32:53;;;;;;;34.75;21.38;;;1.40;99.90;;;;;;5029220;28;20165;-80
2021/01/25 05:35:23;;;;;;;38.92;20.80;;;1.40;99.90;;;;;;5022366;28;20109;-79
2021/01/25 05:37:55;;;;;;;39.88;21.58;;;1.40;99.90;;;;;;5019199;28;20107;-79
2021/01/25 05:40:23;;;;;;;39.20;21.65;;;1.40;99.90;;;;;;5021312;28;20054;-79
2021/01/25 05:42:51;;;;;;;38.80;20.92;;;1.50;99.90;;;;;;5022908;28;20147;-79
2021/01/25 05:45:18;;;;;;;35.58;21.20;;;1.50;99.90;;;;;;5022171;28;20053;-79
2021/01/25 05:47:47;;;;;;;36.55;21.25;;;1.60;99.90;;;;;;5023621;28;20064;-79
2021/01/25 05:50:31;;;;;;;38.13;21.27;;;1.60;99.90;;;;;;5023052;28;20069;-78
2021/01/25 05:53:00;;;;;;;38.22;20.98;;;1.70;99.90;;;;;;5019548;28;20085;-79
2021/01/25 05:55:27;;;;;;;36.65;21.92;;;1.70;99.90;;;;;;5020783;28;20085;-79
2021/01/25 05:57:54;;;;;;;39.40;22.27;;;1.70;99.90;;;;;;5019165;28;20104;-79
2021/01/25 06:00:22;;;;;;;37.30;23.27;;;1.60;99.90;;;;;;5018661;28;20084;-80
2021/01/25 06:02:50;;;;;;;43.40;24.08;;;1.70;99.90;;;;;;5017915;28;20060;-79
2021/01/25 06:05:34;;;;;;;45.40;23.40;;;1.70;99.90;;;;;;5017601;28;20467;-79
2021/01/25 06:08:11;;;;;;;39.78;24.80;;;1.70;99.90;;;;;;5016545;28;20049;-78
2021/01/25 06:10:51;;;;;;;42.65;23.90;;;1.70;99.90;;;;;;5016680;28;20109;-78
2021/01/25 06:13:22;;;;;;;38.65;23.02;;;1.70;99.90;;;;;;5020499;28;20136;-79
2021/01/25 06:15:51;;;;;;;34.60;21.45;;;1.80;99.90;;;;;;5024647;28;20085;-78
2021/01/25 06:18:19;;;;;;;39.58;22.33;;;1.80;99.90;;;;;;5026095;28;20143;-79
2021/01/25 06:20:48;;;;;;;39.35;22.73;;;1.90;99.90;;;;;;5026305;28;20140;-79
2021/01/25 06:23:17;;;;;;;37.92;22.25;;;1.90;99.90;;;;;;5027167;28;20137;-80
2021/01/25 06:25:44;;;;;;;39.15;22.00;;;1.90;99.90;;;;;;5024475;28;20054;-78
2021/01/25 06:28:14;;;;;;;38.40;21.90;;;2.00;99.90;;;;;;5025552;28;20081;-77
2021/01/25 06:30:43;;;;;;;39.13;22.50;;;2.00;99.90;;;;;;5028393;28;20064;-78
2021/01/25 06:33:13;;;;;;;34.85;21.20;;;2.00;99.90;;;;;;5033728;28;20050;-77
2021/01/25 06:35:39;;;;;;;38.88;22.98;;;2.10;99.90;;;;;;5031650;28;20081;-78
2021/01/25 06:38:13;;;;;;;41.05;22.55;;;2.00;99.90;;;;;;5028350;28;20050;-78
2021/01/25 06:40:43;;;;;;;38.42;22.30;;;2.00;99.90;;;;;;5023318;28;20070;-79
2021/01/25 06:43:13;;;;;;;38.40;21.15;;;2.00;99.90;;;;;;5022087;28;20050;-79
2021/01/25 06:45:40;;;;;;;37.03;22.13;;;2.00;99.90;;;;;;5018498;28;20143;-79
2021/01/25 06:48:07;;;;;;;39.33;22.35;;;2.00;99.90;;;;;;5018877;28;20077;-81
2021/01/25 06:50:36;;;;;;;39.92;22.88;;;2.00;99.90;;;;;;5017025;28;20045;-80
2021/01/25 06:53:04;;;;;;;42.25;24.40;;;2.00;99.90;;;;;;5015862;28;20089;-79
2021/01/25 06:55:33;;;;;;;36.00;23.25;;;2.00;99.90;;;;;;5012321;28;20513;-79
2021/01/25 06:58:04;;;;;;;42.13;22.50;;;1.90;99.90;;;;;;5012949;28;20109;-79
2021/01/25 07:00:32;;;;;;;40.17;22.20;;;1.90;99.90;;;;;;5012830;28;20084;-79
2021/01/25 07:03:02;;;;;;;38.72;23.05;;;2.00;99.90;;;;;;5014049;28;20045;-79
2021/01/25 07:05:30;;;;;;;45.47;22.98;;;2.00;99.90;;;;;;5018603;28;20053;-77
2021/01/25 07:08:15;;;;;;;43.33;23.92;;;2.00;99.90;;;;;;5023682;28;20053;-78
2021/01/25 07:10:57;;;;;;;44.65;24.30;;;2.00;99.90;;;;;;5019482;28;20084;-80
2021/01/25 07:13:26;;;;;;;44.15;24.85;;;1.90;99.90;;;;;;5016224;28;20073;-79
2021/01/25 07:15:53;;;;;;;41.38;23.75;;;1.90;99.90;;;;;;5007757;28;20050;-78
2021/01/25 07:18:20;;;;;;;44.95;24.42;;;1.90;99.90;;;;;;5010307;28;20053;-78
2021/01/25 07:20:48;;;;;;;44.22;25.23;;;1.90;99.90;;;;;;5008998;28;20264;-78
2021/01/25 07:23:18;;;;;;;43.80;23.60;;;2.00;99.90;;;;;;5015279;28;20057;-77
2021/01/25 07:25:54;;;;;;;44.72;26.02;;;2.00;99.90;;;;;;5014956;28;20421;-79
2021/01/25 07:28:20;;;;;;;48.83;25.20;;;2.00;99.90;;;;;;5013571;28;20073;-78
2021/01/25 07:30:48;;;;;;;37.90;22.38;;;2.00;99.90;;;;;;5012518;28;20152;-78
2021/01/25 07:33:14;;;;;;;42.20;23.70;;;2.10;99.90;;;;;;5012776;28;20550;-78
2021/01/25 07:35:41;;;;;;;44.63;25.05;;;2.10;99.90;;;;;;5011990;28;20137;-77
2021/01/25 07:38:07;;;;;;;46.15;24.85;;;2.10;99.90;;;;;;5012592;28;20184;-77
2021/01/25 07:40:34;;;;;;;45.53;25.33;;;2.10;99.90;;;;;;5040818;22;20063;-81
2021/01/25 07:43:03;;;;;;;46.05;25.95;;;2.10;99.90;;;;;;5035504;28;20085;-81
2021/01/25 07:45:30;;;;;;;42.90;24.58;;;1.90;99.90;;;;;;5037595;28;20088;-80
2021/01/25 07:47:58;;;;;;;42.65;24.25;;;2.00;99.90;;;;;;5038193;28;20053;-80
2021/01/25 07:50:24;;;;;;;46.90;25.05;;;2.00;99.90;;;;;;5035684;28;20084;-81
2021/01/25 07:53:01;;;;;;;43.55;25.20;;;2.00;99.90;;;;;;5037368;28;20567;-81
2021/01/25 07:55:31;;;;;;;42.13;23.92;;;1.90;99.90;;;;;;5035140;28;20152;-82
2021/01/25 07:58:07;;;;;;;45.67;25.98;;;1.90;99.90;;;;;;5013684;28;20046;-81
2021/01/25 08:00:33;;;;;;;44.08;23.85;;;1.90;99.90;;;;;;5003294;28;20049;-80
2021/01/25 08:03:05;;;;;;;44.67;24.58;;;1.90;99.90;;;;;;5000548;28;20063;-81
2021/01/25 08:05:33;;;;;;;46.28;24.92;;;1.90;99.90;;;;;;4997343;28;20042;-78
2021/01/25 08:08:02;;;;;;;45.10;25.23;;;1.80;99.90;;;;;;5009937;28;20125;-80
2021/01/25 08:10:30;;;;;;;43.45;24.33;;;1.90;99.90;;;;;;5003475;28;20588;-79
2021/01/25 08:12:57;;;;;;;44.22;24.40;;;2.00;99.90;;;;;;5002035;28;20069;-78
2021/01/25 08:15:29;;;;;;;37.53;21.77;;;2.00;99.90;;;;;;5003663;28;20054;-80
2021/01/25 08:18:00;;;;;;;40.28;22.98;;;2.00;99.90;;;;;;5007917;28;20077;-80
2021/01/25 08:20:30;;;;;;;35.53;22.42;;;2.00;99.90;;;;;;5016568;28;20050;-81
2021/01/25 08:23:01;;;;;;;42.30;23.00;;;2.00;99.90;;;;;;5005161;28;20473;-79
2021/01/25 08:25:29;;;;;;;40.17;23.92;;;2.00;99.90;;;;;;5011788;28;20537;-79
2021/01/25 08:28:00;;;;;;;44.58;23.33;;;2.00;99.90;;;;;;5005724;28;20046;-80
2021/01/25 08:30:33;;;;;;;43.97;24.23;;;2.00;99.90;;;;;;5005466;28;20138;-80
2021/01/25 08:33:02;;;;;;;45.13;24.05;;;2.00;99.90;;;;;;4999027;28;20079;-80
2021/01/25 08:35:35;;;;;;;41.28;23.58;;;2.00;99.90;;;;;;4999395;28;20182;-79
2021/01/25 08:38:11;;;;;;;41.13;24.17;;;2.10;99.90;;;;;;5004989;28;20082;-80
2021/01/25 08:40:38;;;;;;;43.92;24.13;;;2.20;99.90;;;;;;5002743;28;20126;-80
2021/01/25 08:43:06;;;;;;;38.65;23.48;;;2.30;99.90;;;;;;4998927;28;20084;-79
2021/01/25 08:45:33;;;;;;;38.50;23.83;;;2.30;99.90;;;;;;4999229;28;20103;-78
2021/01/25 08:48:05;;;;;;;45.90;25.73;;;2.30;99.90;;;;;;4999563;28;20125;-79
2021/01/25 08:50:33;;;;;;;43.55;24.45;;;2.30;99.90;;;;;;5000256;28;20046;-79
2021/01/25 08:53:02;;;;;;;42.83;24.85;;;2.30;99.90;;;;;;5004010;28;20131;-79
2021/01/25 08:55:35;;;;;;;47.67;25.98;;;2.30;99.90;;;;;;5002107;28;20074;-80
2021/01/25 08:58:01;;;;;;;40.53;23.85;;;2.30;99.90;;;;;;5004751;28;20050;-80
2021/01/25 09:00:34;;;;;;;43.20;24.15;;;2.40;99.90;;;;;;5004662;28;20113;-81
2021/01/25 09:03:04;;;;;;;39.65;24.38;;;2.30;99.90;;;;;;5003718;28;20084;-79
2021/01/25 09:05:31;;;;;;;39.13;24.35;;;2.30;99.90;;;;;;5003395;28;20050;-80
2021/01/25 09:07:58;;;;;;;35.35;22.65;;;2.30;99.90;;;;;;5004355;28;20058;-79
2021/01/25 09:10:25;;;;;;;38.45;22.75;;;2.20;99.90;;;;;;5002316;28;20135;-80
2021/01/25 09:12:51;;;;;;;41.30;23.70;;;2.30;99.90;;;;;;5008133;28;20084;-80
2021/01/25 09:15:18;;;;;;;40.60;22.70;;;2.30;99.90;;;;;;5022388;28;20089;-80
2021/01/25 09:17:46;;;;;;;34.75;21.63;;;2.30;99.90;;;;;;5021771;28;20061;-80
2021/01/25 09:20:13;;;;;;;36.63;22.20;;;2.30;99.90;;;;;;5021852;28;20082;-80
2021/01/25 09:22:40;;;;;;;38.17;22.65;;;2.30;99.90;;;;;;5003921;28;20047;-81
2021/01/25 09:25:09;;;;;;;37.03;21.27;;;2.30;99.90;;;;;;5004565;28;20066;-80
2021/01/25 09:27:36;;;;;;;38.72;22.67;;;2.30;99.90;;;;;;4999914;28;20070;-82
2021/01/25 09:30:04;;;;;;;38.70;22.40;;;2.40;99.90;;;;;;5002012;28;20081;-81
2021/01/25 09:32:30;;;;;;;34.83;21.88;;;2.40;99.90;;;;;;5002621;28;20088;-81
2021/01/25 09:34:58;;;;;;;42.97;23.27;;;2.50;99.90;;;;;;5004073;28;20136;-79
2021/01/25 09:37:24;;;;;;;39.40;23.75;;;2.40;99.90;;;;;;5002467;28;20070;-80
2021/01/25 09:39:50;;;;;;;38.72;22.70;;;2.50;99.90;;;;;;5001216;28;20621;-81
2021/01/25 09:42:18;;;;;;;38.70;21.05;;;2.50;99.90;;;;;;5000946;28;20573;-80
2021/01/25 09:44:44;;;;;;;32.17;20.05;;;2.60;99.90;;;;;;5000414;28;20054;-81
2021/01/25 09:47:10;;;;;;;30.33;19.25;;;2.70;99.90;;;;;;5000953;28;20058;-82
2021/01/25 09:49:37;;;;;;;30.48;19.38;;;2.70;99.90;;;;;;5000860;28;20074;-81
2021/01/25 09:52:05;;;;;;;32.88;19.77;;;2.70;99.90;;;;;;5017535;28;20050;-80
2021/01/25 09:54:31;;;;;;;34.03;20.27;;;2.70;99.90;;;;;;5012380;28;20481;-79
2021/01/25 09:56:59;;;;;;;29.90;19.42;;;2.80;99.90;;;;;;5022981;28;20056;-79
2021/01/25 10:00:02;;;;;;;37.10;21.38;;;2.80;99.90;;;;;;5007475;28;20052;-79
2021/01/25 10:02:43;;;;;;;32.42;19.95;;;2.80;99.90;;;;;;4964248;28;20055;-80
2021/01/25 10:05:15;;;;;;;35.97;19.77;;;2.70;99.90;;;;;;4998056;28;20077;-80
2021/01/25 10:07:50;;;;;;;35.97;21.10;;;2.90;99.90;;;;;;5005576;28;20053;-80
2021/01/25 10:10:20;;;;;;;32.53;20.65;;;2.90;99.90;;;;;;5005043;28;20042;-80
2021/01/25 10:12:49;;;;;;;33.95;20.33;;;2.80;99.90;;;;;;4997865;28;20093;-79
2021/01/25 10:15:17;;;;;;;35.40;20.42;;;2.90;99.90;;;;;;5011993;28;20049;-80
2021/01/25 10:17:46;;;;;;;29.33;18.88;;;2.90;99.90;;;;;;4997757;28;20537;-80
2021/01/25 10:20:43;;;;;;;31.48;19.80;;;2.80;99.90;;;;;;4998425;28;20116;-79
2021/01/25 10:23:24;;;;;;;31.85;20.25;;;2.90;99.90;;;;;;5004959;28;20122;-79
2021/01/25 10:26:07;;;;;;;35.75;19.65;;;2.80;99.90;;;;;;5007768;28;20485;-80
2021/01/25 10:28:42;;;;;;;29.02;18.73;;;2.70;99.90;;;;;;5007452;28;20050;-79
2021/01/25 10:31:09;;;;;;;36.20;21.33;;;2.90;99.90;;;;;;5004876;28;20102;-80
2021/01/25 10:33:38;;;;;;;33.63;20.05;;;3.10;99.90;;;;;;5004186;28;20046;-79
2021/01/25 10:36:05;;;;;;;36.40;21.38;;;3.10;99.90;;;;;;5005292;28;20102;-79
2021/01/25 10:38:32;;;;;;;30.73;19.33;;;3.20;99.90;;;;;;5005809;28;20070;-80
2021/01/25 10:40:59;;;;;;;32.08;20.77;;;3.10;99.90;;;;;;5005375;28;20443;-78
2021/01/25 10:43:25;;;;;;;34.20;21.10;;;3.20;99.90;;;;;;5004542;28;20346;-78
2021/01/25 10:45:52;;;;;;;33.42;22.10;;;3.30;99.90;;;;;;4997059;28;20273;-79
2021/01/25 10:48:18;;;;;;;31.42;20.27;;;3.40;99.90;;;;;;5007855;28;20470;-79
2021/01/25 10:50:44;;;;;;;32.17;19.15;;;3.40;99.90;;;;;;4998094;28;20582;-79
2021/01/25 10:53:11;;;;;;;29.90;20.90;;;3.50;99.90;;;;;;4994304;28;20153;-79
2021/01/25 10:55:38;;;;;;;32.90;20.92;;;3.50;99.90;;;;;;4998159;28;20129;-79
2021/01/25 10:58:04;;;;;;;33.42;22.05;;;3.60;99.90;;;;;;5000141;28;20144;-79
2021/01/25 11:00:31;;;;;;;35.35;21.27;;;3.60;99.90;;;;;;5010520;28;20125;-80
2021/01/25 11:02:57;;;;;;;30.70;20.10;;;3.60;99.90;;;;;;5001625;28;20101;-79
2021/01/25 11:05:26;;;;;;;34.55;20.85;;;3.60;99.90;;;;;;5004567;28;20517;-79
2021/01/25 11:07:53;;;;;;;32.20;20.08;;;3.60;99.90;;;;;;4998229;28;20058;-78
2021/01/25 11:10:22;;;;;;;34.70;21.75;;;3.50;99.90;;;;;;5010663;28;20081;-80
2021/01/25 11:12:50;;;;;;;34.53;20.75;;;3.50;99.90;;;;;;5007372;28;20053;-80
2021/01/25 11:15:17;;;;;;;36.42;20.48;;;3.50;99.90;;;;;;5002735;28;20140;-78
2021/01/25 11:17:44;;;;;;;34.47;22.00;;;3.40;99.90;;;;;;5000475;28;20542;-81
2021/01/25 11:20:12;;;;;;;32.65;19.58;;;3.40;99.90;;;;;;4997537;28;20053;-80
2021/01/25 11:22:38;;;;;;;34.33;18.75;;;3.40;99.90;;;;;;5007564;28;20069;-80
2021/01/25 11:25:05;;;;;;;31.30;18.08;;;3.40;99.90;;;;;;5003819;28;20113;-79
2021/01/25 11:27:32;;;;;;;29.17;18.48;;;3.40;99.90;;;;;;5004413;28;20176;-79
2021/01/25 11:29:59;;;;;;;25.02;16.85;;;3.40;99.90;;;;;;4999704;28;20471;-78
2021/01/25 11:32:25;;;;;;;29.20;17.17;;;3.50;99.90;;;;;;5001384;28;20491;-81
2021/01/25 11:34:52;;;;;;;27.17;17.83;;;3.60;99.90;;;;;;4999055;28;20058;-79
2021/01/25 11:37:18;;;;;;;27.60;18.27;;;3.70;99.90;;;;;;5003153;28;20134;-80
2021/01/25 11:39:45;;;;;;;28.55;18.70;;;3.70;99.90;;;;;;4994485;28;20081;-81
2021/01/25 11:42:12;;;;;;;25.77;17.52;;;3.70;99.90;;;;;;5010455;28;20112;-80
2021/01/25 11:44:38;;;;;;;27.05;18.02;;;3.80;99.90;;;;;;4996675;28;20607;-80
2021/01/25 11:47:06;;;;;;;27.75;18.40;;;3.90;99.90;;;;;;5004806;28;20050;-79
2021/01/25 11:49:32;;;;;;;27.70;18.95;;;3.90;99.90;;;;;;5002008;28;20085;-79
2021/01/25 11:51:59;;;;;;;27.40;17.20;;;4.00;99.90;;;;;;5000334;28;20138;-80
2021/01/25 11:54:25;;;;;;;29.13;18.77;;;4.00;99.90;;;;;;5014573;28;20085;-79
2021/01/25 11:56:51;;;;;;;28.30;18.25;;;3.90;99.90;;;;;;5008278;28;20454;-79
2021/01/25 11:59:19;;;;;;;29.63;19.75;;;3.90;99.90;;;;;;5008169;28;20132;-81
2021/01/25 12:01:46;;;;;;;29.50;19.33;;;3.90;99.90;;;;;;5004340;28;20050;-80
2021/01/25 12:04:13;;;;;;;39.22;25.88;;;3.90;99.90;;;;;;4998750;28;20080;-80
2021/01/25 12:06:40;;;;;;;30.52;19.00;;;3.90;99.90;;;;;;5014198;28;20685;-80
2021/01/25 12:09:06;;;;;;;31.85;19.40;;;3.90;99.90;;;;;;5008161;28;20128;-79
2021/01/25 12:11:33;;;;;;;29.08;18.67;;;4.00;99.90;;;;;;5011343;28;20489;-80
2021/01/25 12:13:59;;;;;;;28.20;19.67;;;4.10;99.90;;;;;;5009215;28;20161;-80
2021/01/25 12:16:27;;;;;;;30.58;20.45;;;4.00;99.90;;;;;;5009314;28;20132;-79
2021/01/25 12:18:53;;;;;;;31.00;19.80;;;4.00;99.90;;;;;;5007063;28;20047;-80
2021/01/25 12:21:21;;;;;;;28.15;20.63;;;4.00;99.90;;;;;;5008374;28;20054;-80
2021/01/25 12:23:48;;;;;;;26.95;20.27;;;4.00;99.90;;;;;;5003350;28;20061;-79
2021/01/25 12:26:14;;;;;;;28.58;21.02;;;4.10;99.90;;;;;;5013538;28;20509;-79
2021/01/25 12:28:41;;;;;;;31.17;20.25;;;4.10;99.90;;;;;;5001964;28;20053;-79
2021/01/25 12:31:07;;;;;;;29.15;20.67;;;4.10;99.90;;;;;;5009201;28;20046;-78
2021/01/25 12:33:34;;;;;;;31.70;21.75;;;4.10;99.90;;;;;;5008641;28;20060;-79
2021/01/25 12:36:01;;;;;;;34.00;22.80;;;4.00;99.90;;;;;;4999130;28;20463;-80
2021/01/25 12:38:28;;;;;;;28.35;21.42;;;3.90;99.90;;;;;;5012518;28;20046;-80
2021/01/25 12:40:55;;;;;;;28.40;21.00;;;3.90;99.90;;;;;;5005581;28;20073;-81
2021/01/25 12:43:22;;;;;;;33.78;23.52;;;3.80;99.90;;;;;;5010610;28;20065;-79